sensor_id;sensor_type;location;lat;lon;timestamp;P1;durP1;ratioP1;P2;durP2;ratioP2
33160;SDS011;19522;45.656;11.302;2023-07-31T00:00:46;3.97;;;3.10;;
33160;SDS011;19522;45.656;11.302;2023-07-31T00:03:15;4.28;;;3.17;;
33160;SDS011;19522;45.656;11.302;2023-07-31T00:05:40;4.75;;;3.10;;
33160;SDS011;19522;45.656;11.302;2023-07-31T00:08:06;4.95;;;2.88;;
33160;SDS011;19522;45.656;11.302;2023-07-31T00:10:31;3.72;;;2.80;;
33160;SDS011;19522;45.656;11.302;2023-07-31T00:12:57;4.30;;;3.30;;
33160;SDS011;19522;45.656;11.302;2023-07-31T00:15:22;3.55;;;2.70;;
33160;SDS011;19522;45.656;11.302;2023-07-31T00:17:48;4.47;;;2.95;;
33160;SDS011;19522;45.656;11.302;2023-07-31T00:20:14;3.22;;;2.80;;
33160;SDS011;19522;45.656;11.302;2023-07-31T00:22:39;5.90;;;3.08;;
33160;SDS011;19522;45.656;11.302;2023-07-31T00:25:05;3.88;;;3.20;;
33160;SDS011;19522;45.656;11.302;2023-07-31T00:27:31;6.68;;;3.25;;
33160;SDS011;19522;45.656;11.302;2023-07-31T00:29:57;5.93;;;3.30;;
33160;SDS011;19522;45.656;11.302;2023-07-31T00:32:23;3.95;;;2.97;;
33160;SDS011;19522;45.656;11.302;2023-07-31T00:34:48;4.03;;;3.10;;
33160;SDS011;19522;45.656;11.302;2023-07-31T00:37:14;3.30;;;2.80;;
33160;SDS011;19522;45.656;11.302;2023-07-31T00:39:40;6.00;;;2.85;;
33160;SDS011;19522;45.656;11.302;2023-07-31T00:42:06;6.82;;;3.20;;
33160;SDS011;19522;45.656;11.302;2023-07-31T00:44:32;4.45;;;3.28;;
33160;SDS011;19522;45.656;11.302;2023-07-31T00:46:58;4.88;;;3.05;;
33160;SDS011;19522;45.656;11.302;2023-07-31T00:49:26;4.07;;;2.95;;
33160;SDS011;19522;45.656;11.302;2023-07-31T00:51:52;4.90;;;3.00;;
33160;SDS011;19522;45.656;11.302;2023-07-31T00:54:18;4.47;;;3.15;;
33160;SDS011;19522;45.656;11.302;2023-07-31T00:56:44;3.70;;;2.90;;
33160;SDS011;19522;45.656;11.302;2023-07-31T00:59:11;6.20;;;3.35;;
33160;SDS011;19522;45.656;11.302;2023-07-31T01:01:39;7.13;;;2.97;;
33160;SDS011;19522;45.656;11.302;2023-07-31T01:04:05;4.57;;;3.00;;
33160;SDS011;19522;45.656;11.302;2023-07-31T01:06:44;3.80;;;2.95;;
33160;SDS011;19522;45.656;11.302;2023-07-31T01:11:57;5.20;;;2.80;;
33160;SDS011;19522;45.656;11.302;2023-07-31T01:14:25;4.75;;;3.15;;
33160;SDS011;19522;45.656;11.302;2023-07-31T01:16:50;4.35;;;3.00;;
33160;SDS011;19522;45.656;11.302;2023-07-31T01:19:17;4.72;;;2.92;;
33160;SDS011;19522;45.656;11.302;2023-07-31T01:27:24;5.35;;;3.10;;
33160;SDS011;19522;45.656;11.302;2023-07-31T01:32:47;3.50;;;3.20;;
33160;SDS011;19522;45.656;11.302;2023-07-31T01:35:13;5.32;;;2.92;;
33160;SDS011;19522;45.656;11.302;2023-07-31T01:37:40;3.40;;;2.70;;
33160;SDS011;19522;45.656;11.302;2023-07-31T01:40:06;6.72;;;3.55;;
33160;SDS011;19522;45.656;11.302;2023-07-31T01:42:32;4.95;;;3.17;;
33160;SDS011;19522;45.656;11.302;2023-07-31T01:44:57;3.20;;;2.80;;
33160;SDS011;19522;45.656;11.302;2023-07-31T01:47:23;4.25;;;3.00;;
33160;SDS011;19522;45.656;11.302;2023-07-31T01:49:48;4.90;;;3.30;;
33160;SDS011;19522;45.656;11.302;2023-07-31T01:52:14;4.38;;;3.13;;
33160;SDS011;19522;45.656;11.302;2023-07-31T01:54:39;4.10;;;3.00;;
33160;SDS011;19522;45.656;11.302;2023-07-31T01:57:05;5.30;;;3.03;;
33160;SDS011;19522;45.656;11.302;2023-07-31T01:59:31;4.45;;;3.40;;
33160;SDS011;19522;45.656;11.302;2023-07-31T02:01:56;3.90;;;3.10;;
33160;SDS011;19522;45.656;11.302;2023-07-31T02:04:22;5.82;;;2.97;;
33160;SDS011;19522;45.656;11.302;2023-07-31T02:06:47;4.70;;;3.17;;
33160;SDS011;19522;45.656;11.302;2023-07-31T02:09:13;3.88;;;3.20;;
33160;SDS011;19522;45.656;11.302;2023-07-31T02:11:38;5.65;;;3.80;;
33160;SDS011;19522;45.656;11.302;2023-07-31T02:14:04;5.03;;;3.50;;
33160;SDS011;19522;45.656;11.302;2023-07-31T02:16:29;3.83;;;2.83;;
33160;SDS011;19522;45.656;11.302;2023-07-31T02:18:55;4.82;;;3.20;;
33160;SDS011;19522;45.656;11.302;2023-07-31T02:21:20;4.57;;;3.05;;
33160;SDS011;19522;45.656;11.302;2023-07-31T02:23:46;3.85;;;3.05;;
33160;SDS011;19522;45.656;11.302;2023-07-31T02:26:11;4.20;;;3.00;;
33160;SDS011;19522;45.656;11.302;2023-07-31T02:28:37;4.07;;;3.00;;
33160;SDS011;19522;45.656;11.302;2023-07-31T02:31:02;4.85;;;3.42;;
33160;SDS011;19522;45.656;11.302;2023-07-31T02:33:28;4.00;;;3.03;;
33160;SDS011;19522;45.656;11.302;2023-07-31T02:35:53;2.95;;;2.55;;
33160;SDS011;19522;45.656;11.302;2023-07-31T02:38:19;4.70;;;3.20;;
33160;SDS011;19522;45.656;11.302;2023-07-31T02:40:44;4.85;;;3.40;;
33160;SDS011;19522;45.656;11.302;2023-07-31T02:43:10;4.50;;;3.40;;
33160;SDS011;19522;45.656;11.302;2023-07-31T02:45:35;5.00;;;3.50;;
33160;SDS011;19522;45.656;11.302;2023-07-31T02:48:01;3.85;;;3.45;;
33160;SDS011;19522;45.656;11.302;2023-07-31T02:50:26;3.58;;;2.90;;
33160;SDS011;19522;45.656;11.302;2023-07-31T02:52:54;4.97;;;3.20;;
33160;SDS011;19522;45.656;11.302;2023-07-31T02:55:20;4.45;;;3.50;;
33160;SDS011;19522;45.656;11.302;2023-07-31T02:57:45;5.55;;;3.35;;
33160;SDS011;19522;45.656;11.302;2023-07-31T03:00:12;4.32;;;3.63;;
33160;SDS011;19522;45.656;11.302;2023-07-31T03:02:37;5.65;;;3.30;;
33160;SDS011;19522;45.656;11.302;2023-07-31T03:05:03;6.70;;;3.60;;
33160;SDS011;19522;45.656;11.302;2023-07-31T03:07:29;4.93;;;3.78;;
33160;SDS011;19522;45.656;11.302;2023-07-31T03:09:55;5.20;;;3.50;;
33160;SDS011;19522;45.656;11.302;2023-07-31T03:12:21;4.22;;;3.00;;
33160;SDS011;19522;45.656;11.302;2023-07-31T03:14:46;3.42;;;3.10;;
33160;SDS011;19522;45.656;11.302;2023-07-31T03:17:12;6.07;;;2.90;;
33160;SDS011;19522;45.656;11.302;2023-07-31T03:19:37;5.13;;;3.10;;
33160;SDS011;19522;45.656;11.302;2023-07-31T03:22:03;3.47;;;3.00;;
33160;SDS011;19522;45.656;11.302;2023-07-31T03:24:28;4.75;;;3.13;;
33160;SDS011;19522;45.656;11.302;2023-07-31T03:26:54;3.45;;;3.10;;
33160;SDS011;19522;45.656;11.302;2023-07-31T03:29:20;3.85;;;3.50;;
33160;SDS011;19522;45.656;11.302;2023-07-31T03:31:45;3.97;;;3.33;;
33160;SDS011;19522;45.656;11.302;2023-07-31T03:34:11;3.92;;;3.35;;
33160;SDS011;19522;45.656;11.302;2023-07-31T03:36:36;4.82;;;3.53;;
33160;SDS011;19522;45.656;11.302;2023-07-31T03:39:02;7.15;;;3.63;;
33160;SDS011;19522;45.656;11.302;2023-07-31T03:41:28;6.05;;;4.13;;
33160;SDS011;19522;45.656;11.302;2023-07-31T03:43:54;4.05;;;3.50;;
33160;SDS011;19522;45.656;11.302;2023-07-31T03:46:21;4.95;;;3.72;;
33160;SDS011;19522;45.656;11.302;2023-07-31T03:48:47;6.10;;;3.63;;
33160;SDS011;19522;45.656;11.302;2023-07-31T03:53:48;6.03;;;3.58;;
33160;SDS011;19522;45.656;11.302;2023-07-31T03:56:14;7.43;;;3.50;;
33160;SDS011;19522;45.656;11.302;2023-07-31T03:58:39;5.05;;;3.63;;
33160;SDS011;19522;45.656;11.302;2023-07-31T04:01:05;6.50;;;3.70;;
33160;SDS011;19522;45.656;11.302;2023-07-31T04:03:30;7.28;;;4.28;;
33160;SDS011;19522;45.656;11.302;2023-07-31T04:05:56;6.30;;;4.00;;
33160;SDS011;19522;45.656;11.302;2023-07-31T04:08:22;5.47;;;3.90;;
33160;SDS011;19522;45.656;11.302;2023-07-31T04:10:50;6.07;;;4.28;;
33160;SDS011;19522;45.656;11.302;2023-07-31T04:13:16;4.25;;;3.60;;
33160;SDS011;19522;45.656;11.302;2023-07-31T04:15:42;4.10;;;3.58;;
33160;SDS011;19522;45.656;11.302;2023-07-31T04:18:07;4.10;;;3.70;;
33160;SDS011;19522;45.656;11.302;2023-07-31T04:20:33;4.30;;;3.80;;
33160;SDS011;19522;45.656;11.302;2023-07-31T04:23:01;6.82;;;4.03;;
33160;SDS011;19522;45.656;11.302;2023-07-31T04:25:26;5.70;;;4.07;;
33160;SDS011;19522;45.656;11.302;2023-07-31T04:27:52;5.10;;;4.00;;
33160;SDS011;19522;45.656;11.302;2023-07-31T04:30:18;5.45;;;3.78;;
33160;SDS011;19522;45.656;11.302;2023-07-31T04:32:43;5.68;;;4.15;;
33160;SDS011;19522;45.656;11.302;2023-07-31T04:35:10;4.57;;;3.65;;
33160;SDS011;19522;45.656;11.302;2023-07-31T04:37:36;6.35;;;4.18;;
33160;SDS011;19522;45.656;11.302;2023-07-31T04:40:01;5.13;;;3.90;;
33160;SDS011;19522;45.656;11.302;2023-07-31T04:42:27;5.18;;;3.95;;
33160;SDS011;19522;45.656;11.302;2023-07-31T04:44:52;4.40;;;3.90;;
33160;SDS011;19522;45.656;11.302;2023-07-31T04:47:18;4.28;;;3.60;;
33160;SDS011;19522;45.656;11.302;2023-07-31T04:49:44;4.38;;;3.83;;
33160;SDS011;19522;45.656;11.302;2023-07-31T04:52:10;4.18;;;3.50;;
33160;SDS011;19522;45.656;11.302;2023-07-31T04:54:36;4.63;;;3.70;;
33160;SDS011;19522;45.656;11.302;2023-07-31T04:57:01;4.22;;;3.60;;
33160;SDS011;19522;45.656;11.302;2023-07-31T04:59:27;4.93;;;3.40;;
33160;SDS011;19522;45.656;11.302;2023-07-31T05:01:52;5.72;;;3.35;;
33160;SDS011;19522;45.656;11.302;2023-07-31T05:04:18;4.93;;;3.97;;
33160;SDS011;19522;45.656;11.302;2023-07-31T05:06:43;3.63;;;3.20;;
33160;SDS011;19522;45.656;11.302;2023-07-31T05:09:09;4.97;;;3.92;;
33160;SDS011;19522;45.656;11.302;2023-07-31T05:11:35;4.50;;;3.88;;
33160;SDS011;19522;45.656;11.302;2023-07-31T05:14:01;6.38;;;4.10;;
33160;SDS011;19522;45.656;11.302;2023-07-31T05:16:26;5.05;;;3.58;;
33160;SDS011;19522;45.656;11.302;2023-07-31T05:18:52;4.80;;;3.90;;
33160;SDS011;19522;45.656;11.302;2023-07-31T05:21:17;4.25;;;3.42;;
33160;SDS011;19522;45.656;11.302;2023-07-31T05:23:43;4.13;;;3.72;;
33160;SDS011;19522;45.656;11.302;2023-07-31T05:26:08;4.15;;;3.75;;
33160;SDS011;19522;45.656;11.302;2023-07-31T05:28:36;5.57;;;3.92;;
33160;SDS011;19522;45.656;11.302;2023-07-31T05:31:03;4.03;;;3.60;;
33160;SDS011;19522;45.656;11.302;2023-07-31T05:33:29;5.47;;;3.80;;
33160;SDS011;19522;45.656;11.302;2023-07-31T05:35:55;4.78;;;3.75;;
33160;SDS011;19522;45.656;11.302;2023-07-31T05:38:21;5.35;;;3.83;;
33160;SDS011;19522;45.656;11.302;2023-07-31T05:40:47;5.15;;;3.95;;
33160;SDS011;19522;45.656;11.302;2023-07-31T05:43:13;7.28;;;3.70;;
33160;SDS011;19522;45.656;11.302;2023-07-31T05:45:39;4.40;;;3.95;;
33160;SDS011;19522;45.656;11.302;2023-07-31T05:48:05;4.78;;;3.50;;
33160;SDS011;19522;45.656;11.302;2023-07-31T05:50:34;4.45;;;3.95;;
33160;SDS011;19522;45.656;11.302;2023-07-31T05:53:00;8.98;;;4.00;;
33160;SDS011;19522;45.656;11.302;2023-07-31T05:55:25;4.18;;;3.67;;
33160;SDS011;19522;45.656;11.302;2023-07-31T05:58:00;4.57;;;3.63;;
33160;SDS011;19522;45.656;11.302;2023-07-31T06:00:26;4.40;;;3.85;;
33160;SDS011;19522;45.656;11.302;2023-07-31T06:02:52;4.95;;;4.05;;
33160;SDS011;19522;45.656;11.302;2023-07-31T06:05:18;3.88;;;3.47;;
33160;SDS011;19522;45.656;11.302;2023-07-31T06:07:44;6.30;;;3.95;;
33160;SDS011;19522;45.656;11.302;2023-07-31T06:10:09;6.50;;;4.03;;
33160;SDS011;19522;45.656;11.302;2023-07-31T06:12:35;4.38;;;3.97;;
33160;SDS011;19522;45.656;11.302;2023-07-31T06:15:01;4.22;;;3.67;;
33160;SDS011;19522;45.656;11.302;2023-07-31T06:17:28;4.75;;;3.67;;
33160;SDS011;19522;45.656;11.302;2023-07-31T06:19:54;6.47;;;4.18;;
33160;SDS011;19522;45.656;11.302;2023-07-31T06:22:20;5.68;;;3.50;;
33160;SDS011;19522;45.656;11.302;2023-07-31T06:24:46;4.18;;;3.75;;
33160;SDS011;19522;45.656;11.302;2023-07-31T06:27:11;3.80;;;3.20;;
33160;SDS011;19522;45.656;11.302;2023-07-31T06:29:37;4.25;;;3.58;;
33160;SDS011;19522;45.656;11.302;2023-07-31T06:32:02;5.03;;;3.78;;
33160;SDS011;19522;45.656;11.302;2023-07-31T06:34:28;5.35;;;3.35;;
33160;SDS011;19522;45.656;11.302;2023-07-31T06:36:55;5.80;;;3.65;;
33160;SDS011;19522;45.656;11.302;2023-07-31T06:39:23;6.18;;;3.83;;
33160;SDS011;19522;45.656;11.302;2023-07-31T06:41:48;4.60;;;2.97;;
33160;SDS011;19522;45.656;11.302;2023-07-31T06:44:14;4.70;;;3.15;;
33160;SDS011;19522;45.656;11.302;2023-07-31T06:46:39;4.70;;;3.22;;
33160;SDS011;19522;45.656;11.302;2023-07-31T06:49:05;4.85;;;3.40;;
33160;SDS011;19522;45.656;11.302;2023-07-31T06:51:30;3.85;;;3.00;;
33160;SDS011;19522;45.656;11.302;2023-07-31T06:54:00;5.28;;;3.30;;
33160;SDS011;19522;45.656;11.302;2023-07-31T06:56:26;4.80;;;3.17;;
33160;SDS011;19522;45.656;11.302;2023-07-31T06:58:52;3.53;;;2.00;;
33160;SDS011;19522;45.656;11.302;2023-07-31T07:01:18;3.92;;;1.83;;
33160;SDS011;19522;45.656;11.302;2023-07-31T07:03:43;2.70;;;2.00;;
33160;SDS011;19522;45.656;11.302;2023-07-31T07:06:09;2.80;;;1.75;;
33160;SDS011;19522;45.656;11.302;2023-07-31T07:08:34;2.83;;;2.10;;
33160;SDS011;19522;45.656;11.302;2023-07-31T07:11:02;3.67;;;1.92;;
33160;SDS011;19522;45.656;11.302;2023-07-31T07:13:28;1.48;;;0.98;;
33160;SDS011;19522;45.656;11.302;2023-07-31T07:15:54;2.53;;;1.60;;
33160;SDS011;19522;45.656;11.302;2023-07-31T07:18:19;2.20;;;1.58;;
33160;SDS011;19522;45.656;11.302;2023-07-31T07:20:51;2.40;;;1.55;;
33160;SDS011;19522;45.656;11.302;2023-07-31T07:23:18;2.50;;;1.70;;
33160;SDS011;19522;45.656;11.302;2023-07-31T07:25:45;2.20;;;1.23;;
33160;SDS011;19522;45.656;11.302;2023-07-31T07:28:11;1.98;;;1.05;;
33160;SDS011;19522;45.656;11.302;2023-07-31T07:30:37;1.73;;;1.20;;
33160;SDS011;19522;45.656;11.302;2023-07-31T07:33:06;1.60;;;1.08;;
33160;SDS011;19522;45.656;11.302;2023-07-31T07:35:34;3.97;;;0.88;;
33160;SDS011;19522;45.656;11.302;2023-07-31T07:38:04;1.85;;;1.00;;
33160;SDS011;19522;45.656;11.302;2023-07-31T07:40:29;1.70;;;1.13;;
33160;SDS011;19522;45.656;11.302;2023-07-31T07:42:55;2.15;;;1.13;;
33160;SDS011;19522;45.656;11.302;2023-07-31T07:45:20;1.60;;;1.27;;
33160;SDS011;19522;45.656;11.302;2023-07-31T07:47:46;2.05;;;1.23;;
33160;SDS011;19522;45.656;11.302;2023-07-31T07:50:11;3.15;;;1.30;;
33160;SDS011;19522;45.656;11.302;2023-07-31T07:52:40;2.05;;;1.42;;
33160;SDS011;19522;45.656;11.302;2023-07-31T07:55:05;2.33;;;1.42;;
33160;SDS011;19522;45.656;11.302;2023-07-31T07:57:31;2.05;;;1.27;;
33160;SDS011;19522;45.656;11.302;2023-07-31T07:59:56;1.67;;;1.02;;
33160;SDS011;19522;45.656;11.302;2023-07-31T08:02:22;3.42;;;1.50;;
33160;SDS011;19522;45.656;11.302;2023-07-31T08:04:47;2.42;;;1.40;;
33160;SDS011;19522;45.656;11.302;2023-07-31T08:07:13;1.95;;;1.30;;
33160;SDS011;19522;45.656;11.302;2023-07-31T08:09:39;3.22;;;1.65;;
33160;SDS011;19522;45.656;11.302;2023-07-31T08:12:05;2.63;;;1.08;;
33160;SDS011;19522;45.656;11.302;2023-07-31T08:14:31;1.75;;;1.15;;
33160;SDS011;19522;45.656;11.302;2023-07-31T08:16:57;2.38;;;1.40;;
33160;SDS011;19522;45.656;11.302;2023-07-31T08:19:26;2.53;;;1.13;;
33160;SDS011;19522;45.656;11.302;2023-07-31T08:21:51;2.05;;;1.30;;
33160;SDS011;19522;45.656;11.302;2023-07-31T08:24:17;2.85;;;1.55;;
33160;SDS011;19522;45.656;11.302;2023-07-31T08:26:45;1.50;;;1.17;;
33160;SDS011;19522;45.656;11.302;2023-07-31T08:29:11;2.67;;;1.17;;
33160;SDS011;19522;45.656;11.302;2023-07-31T08:31:37;1.63;;;1.30;;
33160;SDS011;19522;45.656;11.302;2023-07-31T08:34:02;1.65;;;1.25;;
33160;SDS011;19522;45.656;11.302;2023-07-31T08:36:28;2.08;;;1.30;;
33160;SDS011;19522;45.656;11.302;2023-07-31T08:38:53;3.47;;;1.73;;
33160;SDS011;19522;45.656;11.302;2023-07-31T08:41:19;2.40;;;1.33;;
33160;SDS011;19522;45.656;11.302;2023-07-31T08:43:49;2.53;;;1.95;;
33160;SDS011;19522;45.656;11.302;2023-07-31T08:46:15;4.35;;;1.73;;
33160;SDS011;19522;45.656;11.302;2023-07-31T08:48:42;2.60;;;1.60;;
33160;SDS011;19522;45.656;11.302;2023-07-31T08:51:08;2.85;;;1.60;;
33160;SDS011;19522;45.656;11.302;2023-07-31T08:53:34;2.60;;;1.70;;
33160;SDS011;19522;45.656;11.302;2023-07-31T08:56:00;2.13;;;1.50;;
33160;SDS011;19522;45.656;11.302;2023-07-31T08:58:27;3.58;;;1.60;;
33160;SDS011;19522;45.656;11.302;2023-07-31T09:00:56;2.33;;;1.75;;
33160;SDS011;19522;45.656;11.302;2023-07-31T09:03:24;2.15;;;1.60;;
33160;SDS011;19522;45.656;11.302;2023-07-31T09:05:51;1.80;;;1.45;;
33160;SDS011;19522;45.656;11.302;2023-07-31T09:08:19;1.98;;;1.40;;
33160;SDS011;19522;45.656;11.302;2023-07-31T09:10:47;1.63;;;1.35;;
33160;SDS011;19522;45.656;11.302;2023-07-31T09:13:15;2.20;;;1.23;;
33160;SDS011;19522;45.656;11.302;2023-07-31T09:15:42;2.08;;;1.52;;
33160;SDS011;19522;45.656;11.302;2023-07-31T09:18:09;2.80;;;1.17;;
33160;SDS011;19522;45.656;11.302;2023-07-31T09:20:35;2.45;;;1.40;;
33160;SDS011;19522;45.656;11.302;2023-07-31T09:23:11;2.20;;;1.50;;
33160;SDS011;19522;45.656;11.302;2023-07-31T09:25:38;4.25;;;1.58;;
33160;SDS011;19522;45.656;11.302;2023-07-31T09:28:09;2.47;;;1.40;;
33160;SDS011;19522;45.656;11.302;2023-07-31T09:30:48;3.92;;;1.92;;
33160;SDS011;19522;45.656;11.302;2023-07-31T09:33:15;1.42;;;1.05;;
33160;SDS011;19522;45.656;11.302;2023-07-31T09:35:41;2.53;;;1.60;;
33160;SDS011;19522;45.656;11.302;2023-07-31T09:38:08;1.88;;;1.10;;
33160;SDS011;19522;45.656;11.302;2023-07-31T09:40:37;3.25;;;1.40;;
33160;SDS011;19522;45.656;11.302;2023-07-31T09:45:37;2.72;;;1.40;;
33160;SDS011;19522;45.656;11.302;2023-07-31T09:48:13;3.70;;;1.50;;
33160;SDS011;19522;45.656;11.302;2023-07-31T09:50:42;2.00;;;1.40;;
33160;SDS011;19522;45.656;11.302;2023-07-31T09:53:09;2.63;;;1.48;;
33160;SDS011;19522;45.656;11.302;2023-07-31T09:55:35;2.60;;;1.60;;
33160;SDS011;19522;45.656;11.302;2023-07-31T09:58:05;5.18;;;1.90;;
33160;SDS011;19522;45.656;11.302;2023-07-31T10:00:35;4.45;;;2.40;;
33160;SDS011;19522;45.656;11.302;2023-07-31T10:03:10;5.72;;;2.33;;
33160;SDS011;19522;45.656;11.302;2023-07-31T10:05:43;3.67;;;1.30;;
33160;SDS011;19522;45.656;11.302;2023-07-31T10:08:14;1.67;;;1.02;;
33160;SDS011;19522;45.656;11.302;2023-07-31T10:10:41;3.17;;;1.40;;
33160;SDS011;19522;45.656;11.302;2023-07-31T10:13:08;3.33;;;1.45;;
33160;SDS011;19522;45.656;11.302;2023-07-31T10:15:34;3.65;;;1.70;;
33160;SDS011;19522;45.656;11.302;2023-07-31T10:18:05;5.28;;;1.60;;
33160;SDS011;19522;45.656;11.302;2023-07-31T10:20:31;2.60;;;1.02;;
33160;SDS011;19522;45.656;11.302;2023-07-31T10:23:00;2.97;;;1.23;;
33160;SDS011;19522;45.656;11.302;2023-07-31T10:25:27;3.00;;;1.40;;
33160;SDS011;19522;45.656;11.302;2023-07-31T10:27:53;1.52;;;1.25;;
33160;SDS011;19522;45.656;11.302;2023-07-31T10:30:20;1.42;;;1.00;;
33160;SDS011;19522;45.656;11.302;2023-07-31T10:32:50;2.85;;;1.30;;
33160;SDS011;19522;45.656;11.302;2023-07-31T10:35:17;2.03;;;1.15;;
33160;SDS011;19522;45.656;11.302;2023-07-31T10:37:43;2.05;;;1.35;;
33160;SDS011;19522;45.656;11.302;2023-07-31T10:40:10;1.88;;;1.20;;
33160;SDS011;19522;45.656;11.302;2023-07-31T10:45:13;4.00;;;1.20;;
33160;SDS011;19522;45.656;11.302;2023-07-31T10:47:49;2.25;;;1.23;;
33160;SDS011;19522;45.656;11.302;2023-07-31T10:50:18;2.28;;;1.52;;
33160;SDS011;19522;45.656;11.302;2023-07-31T10:52:56;2.95;;;1.40;;
33160;SDS011;19522;45.656;11.302;2023-07-31T10:58:04;4.13;;;1.52;;
33160;SDS011;19522;45.656;11.302;2023-07-31T11:00:32;1.73;;;1.33;;
33160;SDS011;19522;45.656;11.302;2023-07-31T11:03:07;2.30;;;1.30;;
33160;SDS011;19522;45.656;11.302;2023-07-31T11:05:42;2.45;;;1.60;;
33160;SDS011;19522;45.656;11.302;2023-07-31T11:08:29;2.03;;;1.40;;
33160;SDS011;19522;45.656;11.302;2023-07-31T11:13:32;3.15;;;1.52;;
33160;SDS011;19522;45.656;11.302;2023-07-31T11:15:59;2.45;;;1.40;;
33160;SDS011;19522;45.656;11.302;2023-07-31T11:18:25;2.05;;;1.30;;
33160;SDS011;19522;45.656;11.302;2023-07-31T11:20:52;2.53;;;1.35;;
33160;SDS011;19522;45.656;11.302;2023-07-31T11:23:18;2.75;;;1.52;;
33160;SDS011;19522;45.656;11.302;2023-07-31T11:25:45;3.85;;;1.60;;
33160;SDS011;19522;45.656;11.302;2023-07-31T11:28:15;2.17;;;1.40;;
33160;SDS011;19522;45.656;11.302;2023-07-31T11:30:42;2.50;;;1.58;;
33160;SDS011;19522;45.656;11.302;2023-07-31T11:33:10;3.08;;;1.45;;
33160;SDS011;19522;45.656;11.302;2023-07-31T11:35:41;4.55;;;1.65;;
33160;SDS011;19522;45.656;11.302;2023-07-31T11:40:43;3.38;;;1.70;;
33160;SDS011;19522;45.656;11.302;2023-07-31T11:43:09;1.52;;;1.27;;
33160;SDS011;19522;45.656;11.302;2023-07-31T11:45:46;2.05;;;1.30;;
33160;SDS011;19522;45.656;11.302;2023-07-31T11:48:23;3.42;;;1.35;;
33160;SDS011;19522;45.656;11.302;2023-07-31T11:50:52;2.50;;;1.25;;
33160;SDS011;19522;45.656;11.302;2023-07-31T11:53:21;2.42;;;1.50;;
33160;SDS011;19522;45.656;11.302;2023-07-31T11:55:54;2.80;;;1.70;;
33160;SDS011;19522;45.656;11.302;2023-07-31T11:58:20;1.58;;;1.25;;
33160;SDS011;19522;45.656;11.302;2023-07-31T12:00:47;3.70;;;1.33;;
33160;SDS011;19522;45.656;11.302;2023-07-31T12:03:15;3.50;;;1.80;;
33160;SDS011;19522;45.656;11.302;2023-07-31T12:05:43;1.98;;;1.55;;
33160;SDS011;19522;45.656;11.302;2023-07-31T12:08:17;2.38;;;1.70;;
33160;SDS011;19522;45.656;11.302;2023-07-31T12:10:46;2.97;;;1.20;;
33160;SDS011;19522;45.656;11.302;2023-07-31T12:13:23;2.78;;;1.60;;
33160;SDS011;19522;45.656;11.302;2023-07-31T12:15:58;2.65;;;1.55;;
33160;SDS011;19522;45.656;11.302;2023-07-31T12:18:29;2.00;;;1.30;;
33160;SDS011;19522;45.656;11.302;2023-07-31T12:21:08;2.42;;;1.67;;
33160;SDS011;19522;45.656;11.302;2023-07-31T12:23:37;1.80;;;1.40;;
33160;SDS011;19522;45.656;11.302;2023-07-31T12:28:40;3.55;;;1.55;;
33160;SDS011;19522;45.656;11.302;2023-07-31T12:31:27;3.53;;;1.52;;
33160;SDS011;19522;45.656;11.302;2023-07-31T12:34:03;1.95;;;1.40;;
33160;SDS011;19522;45.656;11.302;2023-07-31T12:36:44;3.80;;;1.70;;
33160;SDS011;19522;45.656;11.302;2023-07-31T12:39:14;2.03;;;1.50;;
33160;SDS011;19522;45.656;11.302;2023-07-31T12:41:42;2.83;;;1.45;;
33160;SDS011;19522;45.656;11.302;2023-07-31T12:44:07;1.77;;;1.42;;
33160;SDS011;19522;45.656;11.302;2023-07-31T12:46:33;4.65;;;1.48;;
33160;SDS011;19522;45.656;11.302;2023-07-31T12:49:02;2.80;;;1.50;;
33160;SDS011;19522;45.656;11.302;2023-07-31T12:51:30;5.88;;;1.50;;
33160;SDS011;19522;45.656;11.302;2023-07-31T12:54:00;3.65;;;1.92;;
33160;SDS011;19522;45.656;11.302;2023-07-31T12:56:30;2.40;;;1.42;;
33160;SDS011;19522;45.656;11.302;2023-07-31T12:58:56;3.40;;;1.30;;
33160;SDS011;19522;45.656;11.302;2023-07-31T13:01:21;2.60;;;1.27;;
33160;SDS011;19522;45.656;11.302;2023-07-31T13:03:47;2.70;;;1.60;;
33160;SDS011;19522;45.656;11.302;2023-07-31T13:06:12;3.50;;;1.50;;
33160;SDS011;19522;45.656;11.302;2023-07-31T13:08:38;2.63;;;1.75;;
33160;SDS011;19522;45.656;11.302;2023-07-31T13:11:03;2.15;;;1.38;;
33160;SDS011;19522;45.656;11.302;2023-07-31T13:13:29;2.10;;;1.20;;
33160;SDS011;19522;45.656;11.302;2023-07-31T13:15:55;4.55;;;1.55;;
33160;SDS011;19522;45.656;11.302;2023-07-31T13:18:21;3.15;;;1.15;;
33160;SDS011;19522;45.656;11.302;2023-07-31T13:20:46;2.50;;;1.33;;
33160;SDS011;19522;45.656;11.302;2023-07-31T13:23:12;2.53;;;1.38;;
33160;SDS011;19522;45.656;11.302;2023-07-31T13:25:37;2.30;;;1.30;;
33160;SDS011;19522;45.656;11.302;2023-07-31T13:28:03;2.42;;;1.25;;
33160;SDS011;19522;45.656;11.302;2023-07-31T13:30:28;1.77;;;1.20;;
33160;SDS011;19522;45.656;11.302;2023-07-31T13:32:54;2.33;;;1.30;;
33160;SDS011;19522;45.656;11.302;2023-07-31T13:35:19;2.13;;;1.30;;
33160;SDS011;19522;45.656;11.302;2023-07-31T13:37:45;1.95;;;1.35;;
33160;SDS011;19522;45.656;11.302;2023-07-31T13:40:10;2.38;;;1.40;;
33160;SDS011;19522;45.656;11.302;2023-07-31T13:42:36;2.17;;;1.60;;
33160;SDS011;19522;45.656;11.302;2023-07-31T13:45:02;2.17;;;1.65;;
33160;SDS011;19522;45.656;11.302;2023-07-31T13:47:27;2.15;;;1.17;;
33160;SDS011;19522;45.656;11.302;2023-07-31T13:49:53;2.63;;;1.30;;
33160;SDS011;19522;45.656;11.302;2023-07-31T13:52:19;1.88;;;1.33;;
33160;SDS011;19522;45.656;11.302;2023-07-31T13:54:44;3.03;;;1.48;;
33160;SDS011;19522;45.656;11.302;2023-07-31T13:57:09;4.72;;;1.63;;
33160;SDS011;19522;45.656;11.302;2023-07-31T13:59:35;1.95;;;1.15;;
33160;SDS011;19522;45.656;11.302;2023-07-31T14:02:01;1.52;;;1.10;;
33160;SDS011;19522;45.656;11.302;2023-07-31T14:04:27;2.45;;;1.38;;
33160;SDS011;19522;45.656;11.302;2023-07-31T14:06:53;2.03;;;1.30;;
33160;SDS011;19522;45.656;11.302;2023-07-31T14:09:18;2.28;;;1.10;;
33160;SDS011;19522;45.656;11.302;2023-07-31T14:11:44;2.30;;;1.55;;
33160;SDS011;19522;45.656;11.302;2023-07-31T14:14:09;2.30;;;1.30;;
33160;SDS011;19522;45.656;11.302;2023-07-31T14:16:35;2.92;;;1.50;;
33160;SDS011;19522;45.656;11.302;2023-07-31T14:19:01;3.25;;;1.20;;
33160;SDS011;19522;45.656;11.302;2023-07-31T14:21:27;2.25;;;1.40;;
33160;SDS011;19522;45.656;11.302;2023-07-31T14:23:52;3.05;;;1.10;;
33160;SDS011;19522;45.656;11.302;2023-07-31T14:26:18;2.00;;;1.33;;
33160;SDS011;19522;45.656;11.302;2023-07-31T14:28:43;5.00;;;2.22;;
33160;SDS011;19522;45.656;11.302;2023-07-31T14:31:09;1.83;;;1.23;;
33160;SDS011;19522;45.656;11.302;2023-07-31T14:33:35;2.28;;;1.33;;
33160;SDS011;19522;45.656;11.302;2023-07-31T14:36:01;1.85;;;1.10;;
33160;SDS011;19522;45.656;11.302;2023-07-31T14:38:27;4.60;;;1.60;;
33160;SDS011;19522;45.656;11.302;2023-07-31T14:40:52;2.58;;;1.38;;
33160;SDS011;19522;45.656;11.302;2023-07-31T14:43:18;2.60;;;1.25;;
33160;SDS011;19522;45.656;11.302;2023-07-31T14:45:43;3.13;;;1.23;;
33160;SDS011;19522;45.656;11.302;2023-07-31T14:48:11;3.25;;;1.20;;
33160;SDS011;19522;45.656;11.302;2023-07-31T14:50:37;2.47;;;1.33;;
33160;SDS011;19522;45.656;11.302;2023-07-31T14:53:02;1.85;;;1.05;;
33160;SDS011;19522;45.656;11.302;2023-07-31T14:55:28;5.70;;;1.60;;
33160;SDS011;19522;45.656;11.302;2023-07-31T14:57:53;2.53;;;1.58;;
33160;SDS011;19522;45.656;11.302;2023-07-31T15:00:19;1.33;;;1.20;;